Time;durP1;ratioP1;P1;durP2;ratioP2;P2;SDS_P1;SDS_P2;PMS_P1;PMS_P2;Temp;Humidity;BMP_temperature;BMP_pressure;BME280_temperature;BME280_humidity;BME280_pressure;Samples;Min_cycle;Max_cycle;Signal;HPM_P1;HPM_P2
2022/11/16 00:00:28;;;;;;;17.35;14.25;;;;;;;20.46;54.54;99824.97;5052483;28;20045;-66
2022/11/16 00:02:53;;;;;;;19.63;13.88;;;;;;;21.27;52.35;99824.81;5052397;28;20035;-66
2022/11/16 00:05:18;;;;;;;19.50;14.80;;;;;;;20.66;54.74;99815.66;5084356;28;20425;-65
2022/11/16 00:07:44;;;;;;;18.88;13.98;;;;;;;21.59;51.40;99821.69;5051712;28;20151;-66
2022/11/16 00:10:10;;;;;;;19.05;14.13;;;;;;;20.28;54.57;99815.59;5051776;28;20107;-66
2022/11/16 00:12:36;;;;;;;24.43;14.30;;;;;;;21.10;54.59;99813.56;5053120;28;20064;-66
2022/11/16 00:15:03;;;;;;;17.70;13.15;;;;;;;20.82;53.85;99804.84;5052275;28;20039;-66
2022/11/16 00:17:28;;;;;;;20.40;13.77;;;;;;;20.87;54.47;99803.66;5051900;28;20372;-65
2022/11/16 00:19:54;;;;;;;18.63;12.75;;;;;;;20.90;53.72;99806.97;5052812;28;20040;-66
2022/11/16 00:22:19;;;;;;;21.33;12.85;;;;;;;20.38;55.70;99811.34;5052453;28;20055;-66
2022/11/16 00:24:45;;;;;;;20.17;12.87;;;;;;;21.24;52.63;99822.34;5051484;28;20052;-66
2022/11/16 00:27:10;;;;;;;17.23;13.07;;;;;;;21.82;50.92;99820.84;5051806;28;20135;-66
2022/11/16 00:29:36;;;;;;;18.25;12.63;;;;;;;21.57;51.82;99823.59;5049963;28;20021;-66
2022/11/16 00:32:01;;;;;;;23.17;14.18;;;;;;;21.75;51.24;99822.28;5052093;28;20434;-66
2022/11/16 00:34:26;;;;;;;17.38;13.27;;;;;;;21.92;50.84;99814.88;5051855;28;20033;-66
2022/11/16 00:36:52;;;;;;;17.55;13.65;;;;;;;21.49;52.39;99814.34;5049768;28;20036;-66
2022/11/16 00:39:18;;;;;;;17.67;13.70;;;;;;;21.58;52.05;99812.00;5051063;28;20025;-66
2022/11/16 00:41:43;;;;;;;22.90;14.67;;;;;;;21.32;53.00;99814.69;5052015;28;20036;-66
2022/11/16 00:44:10;;;;;;;22.20;14.55;;;;;;;21.24;53.21;99827.66;5050851;28;20109;-66
2022/11/16 00:46:36;;;;;;;20.15;13.85;;;;;;;21.72;50.96;99825.16;5052797;28;20143;-66
2022/11/16 00:49:02;;;;;;;19.05;14.10;;;;;;;21.27;52.50;99830.97;5052862;28;20033;-65
2022/11/16 00:51:27;;;;;;;18.27;14.00;;;;;;;21.19;52.81;99818.19;5050883;28;20025;-66
2022/11/16 00:53:53;;;;;;;17.50;14.38;;;;;;;20.94;53.33;99820.91;5050992;28;20401;-66
2022/11/16 00:56:18;;;;;;;19.33;14.23;;;;;;;21.42;51.46;99817.53;5052541;28;20032;-66
2022/11/16 00:58:43;;;;;;;19.05;14.18;;;;;;;21.22;52.30;99817.16;5050674;28;20040;-65
2022/11/16 01:01:10;;;;;;;19.80;14.07;;;;;;;21.74;50.33;99823.22;5051052;28;20119;-66
2022/11/16 01:03:37;;;;;;;22.83;14.02;;;;;;;21.11;53.24;99820.56;5051764;28;20095;-66
2022/11/16 01:06:05;;;;;;;22.50;14.90;;;;;;;21.68;51.59;99823.69;5050744;28;20429;-66
2022/11/16 01:08:31;;;;;;;19.08;14.68;;;;;;;21.57;52.11;99821.78;5050636;28;20078;-67
2022/11/16 01:12:07;;;;;;;19.10;14.90;;;;;;;21.35;51.89;99815.31;5050349;28;20028;-67
2022/11/16 01:13:42;;;;;;;19.35;14.63;;;;;;;21.93;50.80;99813.91;5051276;28;20424;-66
2022/11/16 01:16:07;;;;;;;20.77;15.00;;;;;;;21.41;52.40;99814.03;5052598;28;20124;-66
2022/11/16 01:18:32;;;;;;;18.60;13.80;;;;;;;22.12;50.29;99816.03;5051206;28;20040;-66
2022/11/16 01:20:58;;;;;;;17.55;13.95;;;;;;;20.91;53.76;99818.44;5050957;28;20440;-67
2022/11/16 01:23:23;;;;;;;19.00;14.65;;;;;;;21.88;51.24;99813.41;5049708;28;20070;-68
2022/11/16 01:26:00;;;;;;;18.92;13.73;;;;;;;20.87;54.16;99811.63;5051423;28;20063;-66
2022/11/16 01:28:27;;;;;;;19.30;13.50;;;;;;;21.30;52.83;99812.13;5048405;28;20044;-66
2022/11/16 01:30:53;;;;;;;18.50;13.82;;;;;;;20.13;55.98;99812.16;5049745;28;21341;-66
2022/11/16 01:33:18;;;;;;;17.85;13.45;;;;;;;20.44;55.23;99805.66;5083561;28;20158;-66
2022/11/16 01:35:44;;;;;;;18.20;13.48;;;;;;;20.43;56.63;99809.25;5082479;28;20029;-66
2022/11/16 01:38:09;;;;;;;20.15;14.20;;;;;;;20.42;57.02;99809.34;5049524;28;20035;-68
2022/11/16 01:40:36;;;;;;;19.08;14.02;;;;;;;20.35;56.52;99816.88;5051454;28;20033;-68
2022/11/16 01:43:01;;;;;;;15.48;12.85;;;;;;;20.30;56.63;99816.31;5050667;28;20482;-68
2022/11/16 01:45:37;;;;;;;18.95;14.48;;;;;;;21.22;53.47;99805.69;5051143;28;20060;-68
2022/11/16 01:48:03;;;;;;;19.58;14.07;;;;;;;21.25;52.73;99806.28;5049750;28;20043;-68
2022/11/16 01:50:29;;;;;;;18.85;13.63;;;;;;;21.76;51.20;99808.03;5051452;28;20028;-68
2022/11/16 01:53:01;;;;;;;16.50;13.90;;;;;;;21.37;52.41;99799.25;5049779;28;20044;-68
2022/11/16 01:55:29;;;;;;;18.88;13.60;;;;;;;21.49;52.18;99809.00;5051261;28;20176;-66
2022/11/16 01:57:55;;;;;;;18.73;13.07;;;;;;;20.96;53.01;99808.34;5083023;28;20032;-68
2022/11/16 02:00:21;;;;;;;18.27;13.00;;;;;;;21.27;53.27;99798.22;5048718;28;20049;-68
2022/11/16 02:02:46;;;;;;;17.33;13.43;;;;;;;21.99;50.88;99795.66;5049715;28;20037;-68
2022/11/16 02:05:17;;;;;;;16.52;12.70;;;;;;;21.33;52.16;99798.63;5050307;28;20063;-68
2022/11/16 02:10:48;;;;;;;17.17;13.23;;;;;;;22.03;49.97;99806.94;5048963;28;20449;-66
2022/11/16 02:13:24;;;;;;;16.80;12.35;;;;;;;22.16;49.39;99805.06;5049290;28;20106;-66
2022/11/16 02:15:56;;;;;;;13.88;11.52;;;;;;;21.79;50.41;99809.56;5049125;28;20036;-66
2022/11/16 02:18:21;;;;;;;14.57;11.87;;;;;;;21.37;51.12;99809.91;5051356;28;20379;-66
2022/11/16 02:21:02;;;;;;;17.38;12.05;;;;;;;21.42;51.99;99812.22;5048905;28;20044;-65
2022/11/16 02:23:45;;;;;;;16.40;12.70;;;;;;;20.26;54.56;99809.53;5048138;28;20060;-66
2022/11/16 02:26:25;;;;;;;;;;;;;;;21.18;52.32;99811.22;5084020;28;20033;-66
2022/11/16 02:29:13;;;;;;;17.02;12.10;;;;;;;22.08;49.77;99807.44;5050526;28;20030;-68
2022/11/16 02:31:51;;;;;;;16.63;11.82;;;;;;;22.16;49.52;99797.06;5030054;28;20112;-66
2022/11/16 02:34:20;;;;;;;17.97;12.83;;;;;;;21.56;50.42;99797.97;5051442;28;20375;-67
2022/11/16 02:36:50;;;;;;;16.77;12.48;;;;;;;22.12;49.26;99803.59;5048253;28;20025;-67
2022/11/16 02:39:19;;;;;;;17.25;12.52;;;;;;;21.99;49.16;99795.66;5049865;28;20033;-66
2022/11/16 02:41:47;;;;;;;14.35;11.60;;;;;;;22.27;48.94;99804.25;5047279;28;21404;-66
2022/11/16 02:44:24;;;;;;;18.48;12.32;;;;;;;21.82;50.62;99812.03;5048565;28;20409;-66
2022/11/16 02:46:56;;;;;;;20.42;12.40;;;;;;;21.85;49.87;99794.03;5048883;28;20142;-66
2022/11/16 02:49:23;;;;;;;19.25;13.15;;;;;;;21.64;49.49;99806.25;5083079;28;20463;-66
2022/11/16 02:51:50;;;;;;;18.38;11.52;;;;;;;21.94;49.29;99802.28;5048047;28;20425;-66
2022/11/16 02:54:18;;;;;;;14.30;11.27;;;;;;;21.66;49.92;99799.00;5083034;28;20086;-66
2022/11/16 02:57:03;;;;;;;20.80;11.93;;;;;;;22.31;48.36;99802.19;5048791;28;20108;-66
2022/11/16 02:59:35;;;;;;;15.85;11.88;;;;;;;22.05;48.54;99805.03;5038853;28;20048;-65
2022/11/16 03:02:23;;;;;;;15.68;11.77;;;;;;;21.90;48.65;99806.13;5047820;28;20025;-66
2022/11/16 03:04:55;;;;;;;14.85;10.95;;;;;;;22.06;48.46;99806.69;5050300;28;20078;-66
2022/11/16 03:07:28;;;;;;;16.15;10.70;;;;;;;21.79;49.12;99807.78;5048199;28;20029;-66
2022/11/16 03:09:55;;;;;;;14.85;10.57;;;;;;;21.73;48.60;99804.72;5049248;28;20021;-67
2022/11/16 03:12:27;;;;;;;18.27;9.80;;;;;;;21.13;50.01;99802.72;5048798;28;20430;-66
2022/11/16 03:14:57;;;;;;;18.55;10.30;;;;;;;21.88;49.01;99808.91;5047440;28;20288;-66
2022/11/16 03:17:30;;;;;;;14.88;10.27;;;;;;;21.98;48.17;99809.06;5048835;28;20204;-66
2022/11/16 03:20:10;;;;;;;15.50;9.98;;;;;;;21.50;48.59;99815.16;5082145;28;20040;-66
2022/11/16 03:22:41;;;;;;;14.30;10.05;;;;;;;21.50;48.97;99818.69;5049069;28;20037;-68
2022/11/16 03:25:08;;;;;;;14.38;9.88;;;;;;;21.13;49.81;99808.03;5051279;28;20032;-68
2022/11/16 03:27:40;;;;;;;15.05;9.95;;;;;;;21.21;49.23;99814.59;5052722;28;20167;-66
2022/11/16 03:30:16;;;;;;;14.27;9.57;;;;;;;21.01;50.27;99809.72;5052049;28;20049;-67
2022/11/16 03:33:10;;;;;;;12.75;8.93;;;;;;;21.03;50.24;99812.28;5049206;28;20063;-67
2022/11/16 03:35:48;;;;;;;11.57;8.25;;;;;;;21.10;50.21;99818.88;5044890;28;20025;-68
2022/11/16 03:38:15;;;;;;;12.77;8.35;;;;;;;20.87;50.37;99817.81;5051600;28;20040;-67
2022/11/16 03:40:42;;;;;;;12.98;8.30;;;;;;;20.54;51.27;99815.63;5050619;28;20032;-68
2022/11/16 03:43:09;;;;;;;11.97;8.93;;;;;;;21.12;49.76;99822.25;5051235;28;20473;-68
2022/11/16 03:45:35;;;;;;;12.60;8.23;;;;;;;21.17;49.56;99813.97;5085096;28;20071;-67
2022/11/16 03:48:00;;;;;;;13.50;8.15;;;;;;;21.28;48.96;99819.38;5051741;28;20033;-67
2022/11/16 03:50:26;;;;;;;12.05;7.75;;;;;;;21.34;49.18;99818.09;5052760;28;20082;-67
2022/11/16 03:52:51;;;;;;;17.38;8.23;;;;;;;20.88;49.49;99821.31;5052815;28;20037;-67
2022/11/16 03:55:17;;;;;;;12.70;8.88;;;;;;;20.69;49.91;99825.25;5051202;28;20033;-67
2022/11/16 03:57:43;;;;;;;11.55;8.18;;;;;;;20.72;50.07;99824.16;5052598;28;20477;-67
2022/11/16 04:00:09;;;;;;;15.45;8.63;;;;;;;21.35;48.99;99823.28;5052406;28;20045;-67
2022/11/16 04:02:34;;;;;;;13.43;8.87;;;;;;;20.84;49.50;99821.53;5051066;28;20033;-68
2022/11/16 04:24:24;;;;;;;13.80;9.00;;;;;;;19.68;53.17;99849.47;5052947;28;20249;-67
2022/11/16 04:29:40;;;;;;;12.93;8.80;;;;;;;19.92;52.24;99847.09;5053065;28;20043;-67
2022/11/16 04:37:51;;;;;;;17.60;8.90;;;;;;;20.90;48.53;99852.13;5048746;28;20071;-68
2022/11/16 04:40:22;;;;;;;17.30;8.65;;;;;;;20.47;49.34;99853.22;5051922;28;20401;-67
2022/11/16 04:42:52;;;;;;;13.50;9.37;;;;;;;20.43;49.40;99845.53;5052010;28;20025;-67
2022/11/16 04:48:02;;;;;;;14.40;9.00;;;;;;;20.27;50.23;99838.59;5045743;28;20537;-67
2022/11/16 04:50:28;;;;;;;14.57;8.87;;;;;;;20.13;50.64;99841.31;5048840;28;20025;-67
2022/11/16 04:52:53;;;;;;;15.33;9.33;;;;;;;20.34;49.83;99841.69;5050445;28;20471;-68
2022/11/16 04:55:18;;;;;;;16.03;9.53;;;;;;;19.89;50.62;99841.94;5085406;28;20496;-67
2022/11/16 04:57:44;;;;;;;18.53;9.43;;;;;;;20.20;50.07;99845.28;5049380;28;20494;-67
2022/11/16 05:00:10;;;;;;;23.70;9.83;;;;;;;19.98;50.45;99840.53;5051396;28;20506;-67
2022/11/16 05:02:35;;;;;;;16.00;9.60;;;;;;;18.94;53.34;99854.03;5052268;28;20102;-67
2022/11/16 05:05:01;;;;;;;18.00;8.83;;;;;;;19.70;51.30;99847.59;5050410;28;20059;-68
2022/11/16 05:07:26;;;;;;;20.43;9.60;;;;;;;20.19;49.51;99848.03;5051523;28;20021;-67
2022/11/16 05:09:51;;;;;;;18.27;9.43;;;;;;;19.87;50.71;99843.03;5084069;28;20155;-67
2022/11/16 05:12:25;;;;;;;14.80;8.83;;;;;;;18.70;54.36;99857.19;5050702;28;20402;-67
2022/11/16 05:14:52;;;;;;;16.00;8.63;;;;;;;19.54;51.88;99844.19;5051913;28;20024;-67
2022/11/16 05:17:18;;;;;;;15.90;9.10;;;;;;;18.85;52.99;99866.00;5051417;28;20036;-67
2022/11/16 05:22:28;;;;;;;18.17;7.63;;;;;;;19.02;53.99;99851.78;5051745;28;20056;-67
2022/11/16 05:24:53;;;;;;;20.20;7.57;;;;;;;19.14;52.82;99858.97;5051771;28;20470;-67
2022/11/16 05:27:20;;;;;;;11.17;6.07;;;;;;;18.85;53.65;99865.13;5050093;28;20533;-67
2022/11/16 05:29:48;;;;;;;17.33;6.47;;;;;;;18.26;54.44;99869.41;5052181;28;20138;-67
2022/11/16 05:32:14;;;;;;;12.30;6.13;;;;;;;18.32;54.89;99873.50;5048181;28;20029;-67
2022/11/16 05:34:39;;;;;;;13.13;5.73;;;;;;;18.52;53.46;99858.25;5050169;28;20028;-66
2022/11/16 05:37:05;;;;;;;10.20;4.83;;;;;;;19.23;51.38;99867.28;5083650;28;20021;-66
2022/11/16 05:39:30;;;;;;;14.70;6.00;;;;;;;18.81;52.69;99865.31;5049901;28;20017;-66
2022/11/16 05:41:56;;;;;;;11.13;5.37;;;;;;;18.64;53.18;99868.13;5048808;28;20047;-67
2022/11/16 05:44:21;;;;;;;16.57;5.03;;;;;;;19.59;49.79;99856.22;5050146;28;20171;-67
2022/11/16 05:46:47;;;;;;;14.63;6.10;;;;;;;19.17;50.44;99867.69;5050766;28;20017;-67
2022/11/16 05:49:13;;;;;;;10.20;5.10;;;;;;;19.54;49.25;99852.16;5051608;28;20056;-67
2022/11/16 05:51:40;;;;;;;11.67;5.30;;;;;;;19.01;50.22;99865.09;5049889;28;20398;-67
2022/11/16 05:54:06;;;;;;;14.17;5.60;;;;;;;19.21;49.71;99863.91;5049990;28;20028;-67
2022/11/16 05:56:33;;;;;;;11.67;4.73;;;;;;;18.84;50.24;99868.75;5049168;28;20032;-66
2022/11/16 05:58:59;;;;;;;11.43;5.23;;;;;;;19.42;48.92;99859.91;5050207;28;20029;-66
2022/11/16 06:01:24;;;;;;;11.63;4.90;;;;;;;18.70;50.15;99873.06;5048198;28;20410;-67
2022/11/16 06:03:50;;;;;;;18.00;5.43;;;;;;;19.04;48.99;99871.09;5050715;28;20040;-67
2022/11/16 06:06:15;;;;;;;10.37;4.40;;;;;;;17.79;52.01;99871.13;5051736;28;20467;-66
2022/11/16 06:08:41;;;;;;;13.20;4.33;;;;;;;18.71;49.95;99874.78;5049577;28;20550;-67
2022/11/16 06:11:08;;;;;;;10.30;4.13;;;;;;;17.89;51.83;99879.41;5050417;28;20028;-67
2022/11/16 06:13:34;;;;;;;17.27;4.70;;;;;;;17.85;51.39;99879.66;5048676;28;20036;-67
2022/11/16 06:16:00;;;;;;;10.60;4.07;;;;;;;17.78;51.49;99879.97;5049268;28;20379;-67
2022/11/16 06:18:25;;;;;;;11.27;4.47;;;;;;;18.35;49.98;99883.91;5048931;28;20074;-67
2022/11/16 06:20:51;;;;;;;12.00;4.50;;;;;;;17.99;50.49;99887.69;5051506;28;20424;-67
2022/11/16 06:23:16;;;;;;;14.30;4.07;;;;;;;18.23;50.17;99880.19;5049641;28;20035;-67
2022/11/16 06:25:42;;;;;;;13.10;4.20;;;;;;;18.17;50.56;99885.81;5049265;28;20103;-67
2022/11/16 06:28:09;;;;;;;17.17;4.70;;;;;;;18.09;50.78;99888.03;5049031;28;20124;-67
2022/11/16 06:30:34;;;;;;;12.73;4.80;;;;;;;17.52;51.53;99899.91;5047696;28;20039;-67
2022/11/16 06:33:00;;;;;;;12.30;4.70;;;;;;;17.64;51.59;99888.66;5049833;28;20025;-66
2022/11/16 06:35:25;;;;;;;10.40;4.60;;;;;;;17.50;51.20;99898.28;5048597;28;20056;-67
2022/11/16 06:37:50;;;;;;;11.57;4.40;;;;;;;18.08;49.58;99897.75;5048453;28;20059;-67
2022/11/16 06:40:16;;;;;;;10.27;4.47;;;;;;;17.96;49.74;99891.34;5048772;28;20047;-66
2022/11/16 06:42:41;;;;;;;9.17;4.07;;;;;;;17.05;51.50;99896.19;5048904;28;20029;-67
2022/11/16 06:45:07;;;;;;;16.93;4.20;;;;;;;16.68;52.58;99898.06;5050695;28;20065;-67
2022/11/16 06:47:33;;;;;;;14.00;4.70;;;;;;;16.51;53.21;99895.41;5045340;28;20028;-67
2022/11/16 06:49:59;;;;;;;12.80;4.30;;;;;;;16.94;52.43;99903.84;5049373;28;20029;-67
2022/11/16 06:52:25;;;;;;;11.90;4.60;;;;;;;16.93;52.59;99907.41;5050451;28;20025;-67
2022/11/16 06:54:50;;;;;;;15.13;4.07;;;;;;;16.72;52.60;99902.25;5052052;28;20482;-67
2022/11/16 06:57:15;;;;;;;13.20;4.07;;;;;;;16.94;52.68;99909.09;5080241;28;20074;-67
2022/11/16 06:59:41;;;;;;;14.00;3.83;;;;;;;16.64;52.35;99907.03;5048770;28;20070;-67
2022/11/16 07:02:09;;;;;;;12.50;4.00;;;;;;;16.87;52.06;99910.28;5049666;28;20067;-68
2022/11/16 07:04:34;;;;;;;15.30;3.50;;;;;;;17.27;51.00;99917.06;5048702;28;20478;-68
2022/11/16 07:06:59;;;;;;;11.40;3.00;;;;;;;16.74;52.53;99908.28;5047506;28;20079;-68
2022/11/16 07:09:25;;;;;;;5.90;2.60;;;;;;;16.32;53.44;99921.81;5048400;28;20021;-67
2022/11/16 07:11:50;;;;;;;8.63;2.80;;;;;;;17.04;52.03;99915.59;5082251;28;20017;-67
2022/11/16 07:14:16;;;;;;;11.80;3.20;;;;;;;16.91;51.42;99914.53;5085084;28;20111;-67
2022/11/16 07:16:41;;;;;;;9.90;3.80;;;;;;;17.55;49.73;99914.75;5048455;28;20041;-67
2022/11/16 07:19:07;;;;;;;5.43;2.40;;;;;;;17.22;49.94;99918.22;5049553;28;20126;-67
2022/11/16 07:21:32;;;;;;;16.60;3.03;;;;;;;16.81;50.47;99915.91;5051508;28;20025;-67
2022/11/16 07:23:57;;;;;;;8.73;2.40;;;;;;;16.37;52.23;99925.91;5045800;28;20037;-68
2022/11/16 07:26:23;;;;;;;14.20;2.70;;;;;;;16.93;52.15;99917.94;5048143;28;20478;-68
2022/11/16 07:28:48;;;;;;;9.70;2.70;;;;;;;16.08;54.78;99930.81;5052573;28;20055;-67
2022/11/16 07:31:15;;;;;;;11.10;3.10;;;;;;;16.18;54.61;99935.66;5049203;28;20104;-68
2022/11/16 07:33:40;;;;;;;10.40;3.23;;;;;;;16.53;53.96;99935.75;5048551;28;20501;-67
2022/11/16 07:36:12;;;;;;;13.17;3.60;;;;;;;16.54;53.82;99927.75;5047642;28;20021;-67
2022/11/16 07:38:38;;;;;;;13.73;4.13;;;;;;;16.62;53.02;99940.56;5049978;28;20033;-67
2022/11/16 07:41:12;;;;;;;14.40;4.37;;;;;;;16.66;54.17;99942.09;5043091;28;20036;-68
2022/11/16 07:43:38;;;;;;;13.23;4.30;;;;;;;16.04;55.67;99947.69;5047715;28;20029;-67
2022/11/16 07:46:16;;;;;;;15.80;4.37;;;;;;;15.99;56.49;99957.63;5048697;28;20044;-67
2022/11/16 07:48:42;;;;;;;14.40;4.80;;;;;;;16.41;55.07;99943.31;5048513;28;20025;-67
2022/11/16 07:51:11;;;;;;;11.97;4.40;;;;;;;16.22;55.52;99953.03;5048571;28;20457;-68
2022/11/16 07:53:38;;;;;;;12.53;5.03;;;;;;;16.68;54.68;99950.81;5046564;28;20021;-68
2022/11/16 07:56:04;;;;;;;10.93;5.13;;;;;;;15.77;56.72;99963.84;5050085;28;20363;-68
2022/11/16 07:58:34;;;;;;;20.83;4.90;;;;;;;16.17;57.23;99955.03;5049790;28;20390;-68
2022/11/16 08:01:11;;;;;;;14.17;5.70;;;;;;;16.36;56.07;99966.44;5049341;28;20183;-67
2022/11/16 08:03:38;;;;;;;19.50;6.40;;;;;;;16.85;55.00;99963.16;5034810;28;20399;-67
2022/11/16 08:06:18;;;;;;;14.87;6.10;;;;;;;17.35;52.40;99958.94;5040667;28;20035;-67
2022/11/16 08:08:43;;;;;;;22.80;7.17;;;;;;;16.56;54.60;99956.69;5044497;28;20029;-67
2022/11/16 08:11:10;;;;;;;19.17;7.10;;;;;;;16.88;55.29;99959.53;5040292;28;20028;-67
2022/11/16 08:13:38;;;;;;;16.50;7.50;;;;;;;16.76;55.47;99953.94;5065107;28;20028;-67
2022/11/16 08:16:08;;;;;;;23.67;7.07;;;;;;;16.69;55.52;99957.81;5049544;28;20025;-67
2022/11/16 08:18:34;;;;;;;23.67;7.53;;;;;;;17.05;54.82;99967.47;5052114;28;20067;-67
2022/11/16 08:21:00;;;;;;;22.17;7.43;;;;;;;16.51;55.96;99964.81;5054557;28;20029;-67
2022/11/16 08:23:27;;;;;;;26.53;7.13;;;;;;;16.87;56.36;99966.59;5049668;28;20032;-67
2022/11/16 08:26:17;;;;;;;14.20;6.60;;;;;;;17.71;52.72;99959.69;5050603;28;20509;-67
2022/11/16 08:28:45;;;;;;;19.87;7.37;;;;;;;17.95;51.77;99950.44;5050888;28;20166;-67
2022/11/16 08:31:25;;;;;;;22.83;8.37;;;;;;;17.70;52.43;99958.84;5053502;28;20539;-67
2022/11/16 08:33:51;;;;;;;16.30;7.50;;;;;;;18.09;51.61;99959.41;5050191;28;20124;-67
2022/11/16 08:36:17;;;;;;;24.27;8.13;;;;;;;17.61;52.41;99952.25;5049709;28;20119;-67
2022/11/16 08:38:43;;;;;;;26.27;7.43;;;;;;;17.93;51.83;99956.78;5051038;28;20060;-67
2022/11/16 08:41:09;;;;;;;44.13;8.27;;;;;;;17.62;52.29;99961.88;5049109;28;20029;-67
2022/11/16 08:43:34;;;;;;;14.23;7.40;;;;;;;17.06;55.40;99958.63;5047786;28;20043;-67
2022/11/16 08:46:00;;;;;;;18.83;8.40;;;;;;;18.10;52.18;99959.34;5051086;28;20112;-67
2022/11/16 08:48:26;;;;;;;20.93;7.17;;;;;;;17.85;51.87;99969.53;5050574;28;20056;-67
2022/11/16 08:50:51;;;;;;;13.60;6.60;;;;;;;18.32;51.36;99963.44;5050773;28;20017;-67
2022/11/16 08:53:17;;;;;;;20.30;6.30;;;;;;;17.08;53.98;99964.69;5052288;28;20104;-67
2022/11/16 08:55:42;;;;;;;15.50;6.13;;;;;;;17.18;55.64;99964.22;5050883;28;20056;-67
2022/11/16 08:58:09;;;;;;;22.97;5.73;;;;;;;17.35;54.26;99972.13;5050133;28;20025;-66
2022/11/16 09:00:34;;;;;;;20.80;5.83;;;;;;;17.51;54.75;99971.31;5050615;28;20402;-67
2022/11/16 09:03:00;;;;;;;12.70;5.83;;;;;;;17.43;54.78;99971.72;5082683;28;20035;-67
2022/11/16 09:05:25;;;;;;;17.20;5.63;;;;;;;17.15;54.86;99969.66;5048910;28;20453;-67
2022/11/16 09:07:50;;;;;;;12.77;5.23;;;;;;;16.98;56.92;99963.44;5052729;28;20035;-67
2022/11/16 09:10:21;;;;;;;19.37;4.73;;;;;;;16.70;57.72;99966.56;5051061;28;20013;-67
2022/11/16 09:12:48;;;;;;;22.67;5.80;;;;;;;16.88;56.44;99970.91;5050145;28;20447;-67
2022/11/16 09:15:13;;;;;;;12.90;5.53;;;;;;;16.35;59.12;99967.34;5050716;28;20025;-67
2022/11/16 09:17:38;;;;;;;17.47;5.47;;;;;;;17.65;55.95;99968.78;5083892;28;20389;-67
2022/11/16 09:20:05;;;;;;;21.77;6.90;;;;;;;18.02;52.96;99956.25;5048579;28;20048;-67
2022/11/16 09:22:30;;;;;;;21.47;8.10;;;;;;;17.48;54.16;99967.06;5053533;28;20021;-66
2022/11/16 09:24:56;;;;;;;14.70;7.30;;;;;;;16.78;57.56;99972.31;5061172;28;20399;-66
2022/11/16 09:27:21;;;;;;;15.47;8.73;;;;;;;17.21;56.38;99972.81;5043430;28;20494;-69
2022/11/16 09:29:46;;;;;;;17.50;7.97;;;;;;;16.99;57.42;99975.69;5049259;28;20449;-69
2022/11/16 09:32:12;;;;;;;21.57;8.50;;;;;;;17.42;55.49;99972.63;5051560;28;20622;-68
2022/11/16 09:34:37;;;;;;;15.20;8.00;;;;;;;16.64;58.61;99980.91;5062543;28;20633;-66
2022/11/16 09:37:03;;;;;;;17.80;8.30;;;;;;;16.66;57.73;99989.59;5056878;28;20442;-66
2022/11/16 09:39:31;;;;;;;19.53;8.60;;;;;;;16.74;58.53;99982.16;5054200;28;20579;-66
2022/11/16 09:42:36;;;;;;;20.13;8.13;;;;;;;17.75;56.18;99980.59;5048948;28;20119;-66
2022/11/16 09:45:15;;;;;;;19.27;7.90;;;;;;;18.23;54.01;99985.09;5049471;28;20032;-68
2022/11/16 09:47:48;;;;;;;15.17;7.77;;;;;;;19.03;51.55;99975.28;5030972;28;20026;-66
2022/11/16 09:50:45;;;;;;;16.70;6.87;;;;;;;19.01;51.08;99974.53;5048095;28;20021;-66
2022/11/16 09:53:16;;;;;;;17.37;6.60;;;;;;;19.65;50.31;99987.50;5051044;28;20033;-66
2022/11/16 09:55:53;;;;;;;11.50;6.80;;;;;;;18.98;51.51;99982.66;5050283;28;20033;-67
2022/11/16 09:58:27;;;;;;;15.87;4.67;;;;;;;19.36;49.84;99992.78;5050450;28;20031;-66
2022/11/16 10:00:59;;;;;;;13.27;4.07;;;;;;;18.94;50.24;99987.25;5050847;28;20053;-67
2022/11/16 10:03:27;;;;;;;10.23;3.93;;;;;;;19.30;49.26;99979.88;5051708;28;20025;-66
2022/11/16 10:06:04;;;;;;;17.27;4.40;;;;;;;17.99;52.38;99988.16;5048533;28;20115;-66
2022/11/16 10:08:48;;;;;;;13.27;4.47;;;;;;;19.13;50.07;99981.75;5050306;28;20033;-66
2022/11/16 10:11:35;;;;;;;10.87;3.87;;;;;;;19.24;49.35;99978.44;5051634;28;20025;-66
2022/11/16 10:14:31;;;;;;;17.80;4.07;;;;;;;19.01;50.47;99977.16;5051047;28;20390;-66
2022/11/16 10:17:42;;;;;;;10.90;3.30;;;;;;;19.23;49.23;99986.50;5049454;28;20119;-66
2022/11/16 10:20:18;;;;;;;11.10;3.53;;;;;;;19.74;49.00;99979.00;5072764;28;20033;-65
2022/11/16 10:23:24;;;;;;;22.57;6.00;;;;;;;19.83;48.44;99975.78;5048767;28;20033;-66
2022/11/16 10:25:59;;;;;;;11.00;3.77;;;;;;;20.26;47.41;99966.06;5050390;28;20029;-66
2022/11/16 10:28:56;;;;;;;14.40;3.15;;;;;;;20.07;47.15;99961.94;5048411;28;20031;-66
2022/11/16 10:31:33;;;;;;;15.03;3.00;;;;;;;20.56;46.72;99957.06;5051506;28;20045;-66
2022/11/16 10:34:02;;;;;;;12.88;3.25;;;;;;;20.88;45.32;99962.06;5049100;28;20024;-66
2022/11/16 10:36:31;;;;;;;11.23;3.00;;;;;;;19.57;47.56;99966.75;5049682;28;20494;-66
2022/11/16 10:39:13;;;;;;;11.40;3.30;;;;;;;20.53;46.07;99962.59;5051006;28;20516;-65
2022/11/16 10:41:42;;;;;;;11.32;3.03;;;;;;;19.75;47.97;99972.72;5048705;28;20025;-65
2022/11/16 10:44:18;;;;;;;30.02;4.38;;;;;;;20.43;46.88;99965.84;5049148;28;20033;-66
2022/11/16 10:46:54;;;;;;;10.52;2.97;;;;;;;20.44;46.25;99964.00;5049808;28;20056;-66
2022/11/16 10:49:28;;;;;;;9.57;2.55;;;;;;;20.25;46.92;99967.00;5048264;28;20025;-66
2022/11/16 10:51:53;;;;;;;6.50;2.58;;;;;;;19.20;47.61;99961.03;5049832;28;20569;-66
2022/11/16 10:54:18;;;;;;;11.57;3.33;;;;;;;20.29;46.23;99960.56;5050896;28;20099;-66
2022/11/16 10:56:47;;;;;;;10.82;3.75;;;;;;;19.90;46.77;99970.09;5048850;28;20043;-66
2022/11/16 10:59:14;;;;;;;15.90;3.38;;;;;;;17.98;50.12;99970.59;5049644;28;20449;-66
2022/11/16 11:01:42;;;;;;;6.32;2.70;;;;;;;18.74;49.16;99963.72;5050016;28;20025;-66
2022/11/16 11:04:21;;;;;;;13.05;2.40;;;;;;;19.59;47.55;99964.00;5048359;28;20083;-66
2022/11/16 11:06:53;;;;;;;12.57;2.50;;;;;;;19.47;47.80;99968.28;5048671;28;20103;-65
2022/11/16 11:09:22;;;;;;;7.63;2.22;;;;;;;19.96;46.86;99956.44;5049918;28;20116;-66
2022/11/16 11:15:09;;;;;;;8.75;2.00;;;;;;;18.93;48.92;99968.81;5049935;28;20043;-66
2022/11/16 11:17:35;;;;;;;6.80;1.95;;;;;;;18.79;48.88;99961.66;5049846;28;20021;-66
2022/11/16 11:20:06;;;;;;;9.65;2.47;;;;;;;18.83;48.92;99971.13;5048271;28;20120;-66
2022/11/16 11:22:33;;;;;;;10.88;2.35;;;;;;;19.14;48.24;99966.72;5050480;28;20473;-65
2022/11/16 11:25:02;;;;;;;11.50;3.00;;;;;;;18.70;48.70;99968.34;5049611;28;20057;-65
2022/11/16 11:27:32;;;;;;;11.30;2.55;;;;;;;18.82;48.39;99967.63;5049992;28;20024;-66
2022/11/16 11:29:59;;;;;;;7.38;2.22;;;;;;;18.41;49.54;99973.50;5048631;28;20067;-65
2022/11/16 11:32:43;;;;;;;8.25;2.47;;;;;;;19.24;48.63;99977.63;5049099;28;20468;-65
2022/11/16 11:35:22;;;;;;;4.22;2.30;;;;;;;18.09;50.29;99976.16;5048914;28;20486;-66
2022/11/16 11:37:51;;;;;;;5.35;2.33;;;;;;;18.53;49.75;99984.31;5049115;28;20415;-66
2022/11/16 11:40:21;;;;;;;6.37;2.67;;;;;;;18.95;48.25;99975.72;5047683;28;20498;-66
2022/11/16 11:42:54;;;;;;;9.70;3.07;;;;;;;19.40;47.38;99978.41;5050348;28;20032;-66
2022/11/16 11:45:23;;;;;;;;;;;;;;;18.91;48.96;99970.72;5051009;28;20107;-66
2022/11/16 11:48:01;;;;;;;10.70;2.03;;;;;;;18.33;49.37;99965.16;5085342;28;19924;-66
2022/11/16 11:50:41;;;;;;;6.30;1.93;;;;;;;18.89;48.96;99959.34;5052312;28;20098;-65
2022/11/16 11:53:37;;;;;;;11.77;2.00;;;;;;;19.40;46.99;99946.59;5053387;28;20104;-66
2022/11/16 11:56:03;;;;;;;8.15;2.08;;;;;;;20.48;44.84;99934.53;5053106;28;20436;-66
2022/11/16 11:58:32;;;;;;;9.10;2.33;;;;;;;21.48;43.39;99929.59;5052060;28;20033;-66
2022/11/16 12:01:19;;;;;;;10.15;2.65;;;;;;;20.98;43.69;99931.28;5052118;28;20071;-65
2022/11/16 12:04:24;;;;;;;7.95;1.40;;;;;;;21.19;42.92;99929.81;5053902;28;20051;-66
2022/11/16 12:07:08;;;;;;;5.90;1.70;;;;;;;20.63;42.97;99931.81;5053268;28;20032;-66
2022/11/16 12:09:58;;;;;;;7.28;1.60;;;;;;;19.13;45.89;99934.06;5053202;28;20048;-65
2022/11/16 12:12:41;;;;;;;6.63;2.00;;;;;;;19.63;45.08;99931.06;5052486;28;20510;-66
2022/11/16 12:15:15;;;;;;;8.00;1.60;;;;;;;19.30;45.99;99918.94;5051591;28;20033;-66